Other Surface Observations
Issued by NWS Great Falls, MT

Home | Current Version | Previous Version | Text Only | Print | Product List | Glossary On
Versions: 1 2 3 4 5 6 7 8 9 10 11 12 13 14 15 16 17 18 19 20 21 22 23 24 25 26 27 28 29 30 31 32 33 34 35 36 37 38 39 40 41 42 43 44 45 46 47 48 49 50
000
SXUS55 KTFX 191329
OSOTFX

AREA AWOS OBSERVATIONS
NATIONAL WEATHER SERVICE GREAT FALLS MT
0729 AM MDT Thu Apr 19 2018

METAR K3U3 191328Z AUTO 28000KT M02/M06 A3009
METAR KS71 191329Z AUTO 09012G17KTKT 10SM 02/02 A3023
METAR K38S 191329Z AUTO 28003KT 10SM M02/M04 A3012
METAR K6S5 191328Z AUTO 16000 10SM M01/M05 A3011
METAR K1S3 191328Z AUTO 07008KT 03/01 A3023
METAR KPWD 191328Z AUTO 11006KT 1/4SM M02/M02 A3038
METAR KPO1 191328Z AUTO 07000KT  M1/4SM 00/M01 A3038



USA.gov is the U.S. government's official web portal to all federal, state and local government web resources and services.